Terminal Aerodrome Forecast
Issued by NWS

Current Version | Previous Version | Text Only | Print | Product List | Glossary On
Versions: 1 2 3 4 5 6 7 8 9 10 11 12 13 14 15 16 17 18 19 20 21 22 23 24 25 26 27 28 29 30 31 32 33
000
FTUS45 KRIW 270500
TAFPNA
TAF
KPNA 270539Z 2706/2806 29006KT P6SM FEW100 BKN200
     FM270900 VRB05KT P6SM VCFG SCT008 BKN200
     FM271700 29006KT P6SM SCT100 BKN200
     FM272000 30012KT P6SM SCT080 BKN150
     FM280100 30006KT P6SM FEW100 SCT200
      AMD LTD TO CLD VIS AND WIND=

USA.gov is the U.S. government's official web portal to all federal, state and local government web resources and services.